Time;durP1;ratioP1;P1;durP2;ratioP2;P2;SDS_P1;SDS_P2;PMS_P1;PMS_P2;Temp;Humidity;BMP_temperature;BMP_pressure;BME280_temperature;BME280_humidity;BME280_pressure;Samples;Min_cycle;Max_cycle;Signal;HPM_P1;HPM_P2
2022/03/07 00:00:22;;;;;;;12.73;11.38;;;;;;;3.10;38.15;95576.00;4972617;28;20058;-69
2022/03/07 00:02:48;;;;;;;14.60;11.90;;;;;;;4.15;37.26;95660.72;4975271;28;20158;-68
2022/03/07 00:05:15;;;;;;;14.73;12.32;;;;;;;4.09;37.10;95668.81;4975863;28;20042;-68
2022/03/07 00:07:41;;;;;;;14.40;11.57;;;;;;;3.59;38.77;95673.31;4975808;28;20110;-68
2022/03/07 00:10:07;;;;;;;13.02;11.65;;;;;;;3.89;37.35;95677.31;4974189;28;20054;-69
2022/03/07 00:12:32;;;;;;;12.73;11.43;;;;;;;4.22;37.26;95671.03;4975320;28;20026;-69
2022/03/07 00:14:57;;;;;;;14.20;11.85;;;;;;;3.73;37.20;95592.16;4975457;28;20504;-68
2022/03/07 00:17:23;;;;;;;13.88;11.30;;;;;;;3.36;38.17;95629.66;4973628;28;20026;-70
2022/03/07 00:19:48;;;;;;;12.30;11.07;;;;;;;3.61;37.77;95602.03;4974956;28;20073;-69
2022/03/07 00:22:14;;;;;;;12.68;11.23;;;;;;;3.69;37.59;95582.41;4974081;28;20122;-69
2022/03/07 00:24:39;;;;;;;13.63;12.20;;;;;;;3.70;37.71;95592.66;4975393;28;20033;-69
2022/03/07 00:27:05;;;;;;;13.73;12.32;;;;;;;3.01;38.65;95571.41;4975621;28;20488;-68
2022/03/07 00:29:30;;;;;;;16.02;11.85;;;;;;;3.58;38.77;95634.91;4975199;28;20472;-68
2022/03/07 00:31:55;;;;;;;16.63;13.10;;;;;;;3.53;39.05;95605.94;4974665;28;20027;-68
2022/03/07 00:34:21;;;;;;;12.68;11.20;;;;;;;2.96;39.45;95568.72;4974937;28;20034;-69
2022/03/07 00:36:46;;;;;;;14.18;12.68;;;;;;;2.49;40.09;95500.94;4975330;28;20438;-69
2022/03/07 00:39:12;;;;;;;13.93;12.43;;;;;;;2.61;40.85;95538.38;4975001;28;20027;-68
2022/03/07 00:41:37;;;;;;;14.90;12.70;;;;;;;2.94;41.74;95639.94;4974947;28;20098;-68
2022/03/07 00:44:02;;;;;;;14.00;11.88;;;;;;;3.49;41.17;95660.06;4975019;28;20070;-68
2022/03/07 00:46:28;;;;;;;16.17;13.25;;;;;;;2.76;41.51;95596.34;4974525;28;20070;-68
2022/03/07 00:48:53;;;;;;;13.75;12.15;;;;;;;3.27;41.76;95681.06;4974664;28;20030;-68
2022/03/07 00:51:19;;;;;;;15.27;12.85;;;;;;;3.90;40.74;95686.81;4974809;28;20034;-68
2022/03/07 00:53:46;;;;;;;14.52;13.02;;;;;;;4.05;41.00;95671.16;4974850;28;20105;-68
2022/03/07 00:56:11;;;;;;;14.25;12.77;;;;;;;3.37;40.75;95601.53;4974831;28;20435;-68
2022/03/07 00:58:37;;;;;;;14.73;13.23;;;;;;;2.83;41.40;95504.22;4974633;28;20030;-70
2022/03/07 01:01:03;;;;;;;15.20;12.75;;;;;;;2.75;43.78;95667.50;4974749;28;20041;-69
2022/03/07 01:03:28;;;;;;;14.18;12.60;;;;;;;2.59;43.96;95611.34;4973974;28;20093;-68
2022/03/07 01:05:54;;;;;;;16.00;13.60;;;;;;;3.27;43.93;95661.88;4974568;28;20030;-68
2022/03/07 01:08:19;;;;;;;14.25;12.88;;;;;;;3.17;43.62;95625.75;4974683;28;20031;-68
2022/03/07 01:10:44;;;;;;;16.30;13.82;;;;;;;3.16;44.63;95674.09;4973845;28;20431;-69
2022/03/07 01:13:10;;;;;;;15.35;13.60;;;;;;;2.23;45.10;95516.34;4974335;28;20535;-69
2022/03/07 01:15:35;;;;;;;16.52;14.35;;;;;;;3.30;44.63;95661.41;4974757;28;20038;-68
2022/03/07 01:18:02;;;;;;;15.07;13.57;;;;;;;3.23;44.97;95658.97;4973872;28;20459;-68
2022/03/07 01:20:28;;;;;;;16.35;14.43;;;;;;;2.83;44.68;95568.06;4973959;28;20118;-69
2022/03/07 01:22:53;;;;;;;16.45;14.75;;;;;;;3.62;44.78;95674.66;4974469;28;20105;-68
2022/03/07 01:25:19;;;;;;;15.63;13.85;;;;;;;3.24;44.63;95615.06;4974353;28;20035;-68
2022/03/07 01:27:44;;;;;;;20.02;15.38;;;;;;;3.04;44.30;95587.50;4974348;28;20031;-68
2022/03/07 01:30:10;;;;;;;18.52;15.13;;;;;;;3.22;43.87;95570.59;4974280;28;20062;-68
2022/03/07 01:32:36;;;;;;;19.20;16.05;;;;;;;3.53;44.84;95657.72;4972107;28;20031;-69
2022/03/07 01:35:03;;;;;;;19.20;15.32;;;;;;;3.29;44.43;95602.78;4974510;28;20034;-68
2022/03/07 01:37:28;;;;;;;19.75;15.73;;;;;;;3.13;43.62;95509.81;4974042;28;20504;-68
2022/03/07 01:39:54;;;;;;;17.92;15.45;;;;;;;3.17;44.28;95551.34;4973512;28;20038;-69
2022/03/07 01:42:19;;;;;;;18.95;15.93;;;;;;;2.95;45.29;95543.50;4974512;28;20086;-69
2022/03/07 01:44:44;;;;;;;20.05;17.13;;;;;;;3.59;44.97;95647.03;4974032;28;20492;-68
2022/03/07 01:47:10;;;;;;;18.17;15.35;;;;;;;1.13;46.46;95372.88;4973620;28;20034;-70
2022/03/07 01:49:35;;;;;;;17.17;15.50;;;;;;;2.28;46.88;95520.88;4973362;28;20027;-69
2022/03/07 01:52:01;;;;;;;17.67;15.80;;;;;;;2.67;46.35;95568.13;4973850;28;20033;-68
2022/03/07 01:54:26;;;;;;;22.75;16.70;;;;;;;3.51;46.11;95652.69;4974078;28;20054;-69
2022/03/07 01:56:53;;;;;;;22.67;16.30;;;;;;;2.68;46.63;95569.72;4972507;28;20038;-67
2022/03/07 01:59:22;;;;;;;20.55;17.38;;;;;;;2.92;46.07;95560.56;4973764;28;20027;-68
2022/03/07 02:01:47;;;;;;;21.30;17.20;;;;;;;3.50;45.62;95597.72;4973328;28;20189;-67
2022/03/07 02:04:14;;;;;;;20.33;18.15;;;;;;;3.38;46.51;95597.88;4973309;28;20515;-68
2022/03/07 02:06:40;;;;;;;24.10;18.50;;;;;;;3.19;47.48;95667.59;4973589;28;20030;-67
2022/03/07 02:09:07;;;;;;;18.77;16.98;;;;;;;3.75;46.46;95660.34;4973356;28;20034;-67
2022/03/07 02:11:33;;;;;;;22.40;18.20;;;;;;;3.42;47.21;95646.28;4973469;28;20023;-68
2022/03/07 02:14:22;;;;;;;24.92;18.90;;;;;;;3.69;46.76;95645.53;4973333;28;20066;-68
2022/03/07 02:16:48;;;;;;;23.42;19.17;;;;;;;3.71;46.58;95636.34;4971679;28;20511;-68
2022/03/07 02:19:14;;;;;;;24.55;18.45;;;;;;;3.69;46.99;95656.84;4972896;28;20543;-68
2022/03/07 02:21:46;;;;;;;27.45;20.20;;;;;;;3.79;46.42;95630.66;4971843;28;20059;-68
2022/03/07 02:24:12;;;;;;;26.55;19.65;;;;;;;3.45;46.65;95622.13;4972374;28;20031;-69
2022/03/07 02:26:38;;;;;;;23.02;19.13;;;;;;;3.04;46.15;95534.16;4973061;28;20031;-67
2022/03/07 02:29:04;;;;;;;25.05;19.23;;;;;;;3.34;46.28;95576.53;4972926;28;20487;-68
2022/03/07 02:31:29;;;;;;;26.58;19.70;;;;;;;4.20;45.78;95682.84;4971882;28;20037;-67
2022/03/07 02:33:55;;;;;;;24.95;19.73;;;;;;;4.10;45.32;95652.00;4972373;28;20102;-68
2022/03/07 02:36:21;;;;;;;21.88;19.48;;;;;;;3.50;46.23;95635.34;4972904;28;20038;-68
2022/03/07 02:38:46;;;;;;;23.75;19.38;;;;;;;2.76;46.45;95540.38;4972778;28;20102;-69
2022/03/07 02:41:12;;;;;;;25.63;18.40;;;;;;;2.94;47.86;95665.41;4972693;28;20050;-67
2022/03/07 02:43:37;;;;;;;25.92;19.67;;;;;;;3.02;47.05;95659.72;4972838;28;20150;-67
2022/03/07 02:46:04;;;;;;;22.65;18.48;;;;;;;2.93;47.77;95664.63;4973082;28;20054;-68
2022/03/07 02:48:29;;;;;;;24.35;19.73;;;;;;;3.02;47.15;95681.56;4971901;28;20387;-68
2022/03/07 02:50:57;;;;;;;24.83;19.13;;;;;;;2.99;46.68;95615.56;4972497;28;20035;-68
2022/03/07 02:53:23;;;;;;;26.35;19.02;;;;;;;3.27;45.80;95635.59;4972632;28;20054;-68
2022/03/07 02:55:48;;;;;;;21.55;19.23;;;;;;;3.27;45.66;95593.53;4972649;28;20181;-68
2022/03/07 02:58:14;;;;;;;21.30;18.05;;;;;;;2.20;46.21;95493.22;4972644;28;20023;-68
2022/03/07 03:00:39;;;;;;;21.08;17.38;;;;;;;3.37;45.78;95669.88;4971071;28;20034;-68
2022/03/07 03:03:05;;;;;;;19.83;16.75;;;;;;;2.64;46.29;95581.75;4971833;28;20030;-68
2022/03/07 03:05:30;;;;;;;21.70;17.88;;;;;;;2.94;46.08;95597.88;4972239;28;20117;-68
2022/03/07 03:07:56;;;;;;;20.23;16.55;;;;;;;3.43;45.24;95629.50;4972019;28;20037;-68
2022/03/07 03:10:21;;;;;;;20.10;16.70;;;;;;;3.40;45.45;95664.16;4972174;28;20515;-68
2022/03/07 03:12:47;;;;;;;18.42;15.52;;;;;;;2.82;46.60;95662.91;4973089;28;20082;-69
2022/03/07 03:15:14;;;;;;;18.73;15.90;;;;;;;2.85;46.09;95680.78;4973256;28;20050;-69
2022/03/07 03:17:40;;;;;;;20.23;15.88;;;;;;;2.06;46.97;95589.84;4972272;28;20037;-68
2022/03/07 03:20:08;;;;;;;16.25;14.55;;;;;;;2.93;46.05;95655.94;4971680;28;20047;-68
2022/03/07 03:22:34;;;;;;;19.52;15.00;;;;;;;1.94;45.85;95562.88;4972036;28;20357;-68
2022/03/07 03:24:59;;;;;;;17.33;14.30;;;;;;;2.41;45.47;95582.75;4972209;28;20026;-68
2022/03/07 03:27:24;;;;;;;14.70;13.10;;;;;;;2.20;45.92;95628.88;4970715;28;20022;-68
2022/03/07 03:29:50;;;;;;;16.75;14.65;;;;;;;3.05;45.05;95664.50;4972109;28;20054;-67
2022/03/07 03:32:15;;;;;;;17.30;13.60;;;;;;;2.37;44.26;95540.44;4971752;28;20026;-69
2022/03/07 03:34:41;;;;;;;16.15;13.73;;;;;;;3.01;44.43;95674.69;4971631;28;20030;-67
2022/03/07 03:37:07;;;;;;;17.60;13.88;;;;;;;2.19;44.98;95580.06;4972170;28;20035;-68
2022/03/07 03:39:32;;;;;;;16.27;13.05;;;;;;;2.89;44.72;95668.78;4971690;28;20023;-67
2022/03/07 03:41:57;;;;;;;15.38;13.80;;;;;;;1.94;44.56;95536.66;4971756;28;20030;-68
2022/03/07 03:44:23;;;;;;;16.67;12.70;;;;;;;2.81;44.34;95650.78;4972024;28;20117;-69
2022/03/07 03:46:48;;;;;;;14.50;12.25;;;;;;;2.17;44.75;95588.16;4972301;28;20031;-68
2022/03/07 03:49:13;;;;;;;15.30;13.25;;;;;;;2.56;44.34;95599.50;4971613;28;20436;-67
2022/03/07 03:51:39;;;;;;;13.63;12.23;;;;;;;2.72;43.88;95639.91;4970529;28;20031;-67
2022/03/07 03:54:04;;;;;;;17.30;12.65;;;;;;;2.20;44.69;95539.66;4971924;28;20042;-67
2022/03/07 03:56:30;;;;;;;16.17;11.85;;;;;;;1.85;44.22;95545.97;4972047;28;20053;-68
2022/03/07 03:58:55;;;;;;;14.52;12.98;;;;;;;2.45;44.39;95650.28;4971542;28;20039;-68
2022/03/07 04:01:20;;;;;;;14.43;12.50;;;;;;;2.52;43.56;95576.59;4971675;28;20038;-69
2022/03/07 04:03:46;;;;;;;14.98;12.20;;;;;;;2.75;43.16;95621.03;4971160;28;20054;-68
2022/03/07 04:06:11;;;;;;;14.02;12.52;;;;;;;2.56;43.03;95548.81;4970357;28;20657;-68
2022/03/07 04:09:11;;;;;;;12.82;11.57;;;;;;;2.24;43.93;95591.41;4971305;28;20086;-68
2022/03/07 04:11:37;;;;;;;14.82;13.23;;;;;;;3.01;43.28;95645.78;4971333;28;20041;-67
2022/03/07 04:14:02;;;;;;;15.65;13.73;;;;;;;3.69;42.63;95671.84;4971577;28;20042;-68
2022/03/07 04:16:28;;;;;;;14.38;12.88;;;;;;;2.54;42.96;95546.41;4971715;28;20039;-68
2022/03/07 04:18:53;;;;;;;16.42;12.40;;;;;;;3.36;42.49;95647.28;4970974;28;20118;-69
2022/03/07 04:21:19;;;;;;;19.80;12.98;;;;;;;3.49;42.87;95670.56;4971313;28;20091;-68
2022/03/07 04:23:44;;;;;;;13.98;12.23;;;;;;;2.46;42.18;95478.59;4971603;28;20122;-69
2022/03/07 04:26:10;;;;;;;13.75;11.95;;;;;;;2.24;42.45;95493.50;4970493;28;20054;-67
2022/03/07 04:28:35;;;;;;;14.85;13.02;;;;;;;2.44;43.11;95579.63;4971492;28;20119;-67
2022/03/07 04:31:00;;;;;;;14.25;12.43;;;;;;;2.73;42.16;95533.78;4969836;28;20030;-68
2022/03/07 04:33:26;;;;;;;14.23;12.73;;;;;;;3.19;42.12;95579.00;4971232;28;20031;-67
2022/03/07 04:35:52;;;;;;;16.80;12.70;;;;;;;2.98;42.18;95511.50;4971014;28;20023;-68
2022/03/07 04:38:18;;;;;;;14.02;12.32;;;;;;;2.93;41.79;95553.47;4971545;28;20033;-69
2022/03/07 04:40:44;;;;;;;14.30;12.55;;;;;;;3.81;41.93;95677.75;4969959;28;20026;-68
2022/03/07 04:43:09;;;;;;;13.75;12.35;;;;;;;3.21;42.30;95612.91;4971437;28;20031;-68
2022/03/07 04:45:34;;;;;;;15.35;12.73;;;;;;;3.15;42.82;95679.63;4971532;28;20089;-69
2022/03/07 04:48:00;;;;;;;14.00;12.60;;;;;;;2.76;42.62;95580.56;4973083;28;20023;-68
2022/03/07 04:50:25;;;;;;;16.88;12.70;;;;;;;2.89;42.94;95621.47;4974823;28;20118;-68
2022/03/07 04:52:51;;;;;;;16.50;12.95;;;;;;;2.46;42.75;95533.72;4975215;28;20503;-68
2022/03/07 04:55:16;;;;;;;16.80;12.55;;;;;;;2.72;43.54;95632.03;4974962;28;20061;-69
2022/03/07 04:57:43;;;;;;;14.75;13.25;;;;;;;2.82;43.84;95674.22;4974909;28;20026;-69
2022/03/07 05:00:10;;;;;;;15.27;11.88;;;;;;;2.87;43.25;95623.56;4973224;28;20553;-69
2022/03/07 05:02:36;;;;;;;13.52;12.23;;;;;;;3.17;43.16;95703.81;4973218;28;20511;-69
2022/03/07 05:05:02;;;;;;;14.02;11.80;;;;;;;3.45;42.50;95666.84;4974526;28;20030;-68
2022/03/07 05:07:27;;;;;;;15.68;12.25;;;;;;;2.96;42.63;95571.34;4974891;28;20109;-68
2022/03/07 05:09:53;;;;;;;13.02;11.77;;;;;;;2.94;42.96;95602.34;4974562;28;20535;-68
2022/03/07 05:12:27;;;;;;;14.30;12.90;;;;;;;2.48;42.24;95496.72;4974589;28;20023;-68
2022/03/07 05:14:52;;;;;;;14.57;12.95;;;;;;;2.63;42.90;95590.66;4974815;28;20042;-68
2022/03/07 05:17:18;;;;;;;16.60;12.80;;;;;;;3.56;42.62;95658.03;4974729;28;20515;-68
2022/03/07 05:19:45;;;;;;;18.33;13.05;;;;;;;2.80;42.41;95571.19;4974043;28;20053;-68
2022/03/07 05:22:11;;;;;;;15.43;12.70;;;;;;;3.55;42.21;95650.38;4974019;28;20027;-69
2022/03/07 05:24:36;;;;;;;15.20;12.45;;;;;;;2.79;42.00;95566.97;4974339;28;20061;-68
2022/03/07 05:27:02;;;;;;;14.27;12.82;;;;;;;1.93;43.26;95511.44;4974311;28;20416;-69
2022/03/07 05:29:27;;;;;;;14.45;12.93;;;;;;;3.24;42.65;95659.75;4974015;28;20031;-68
2022/03/07 05:31:53;;;;;;;14.15;12.73;;;;;;;2.96;43.03;95643.09;4974098;28;20117;-68
2022/03/07 05:34:18;;;;;;;14.05;12.68;;;;;;;2.86;43.56;95685.78;4973419;28;20082;-69
2022/03/07 05:36:44;;;;;;;16.27;13.40;;;;;;;2.86;43.11;95642.97;4973830;28;20454;-68
2022/03/07 05:39:10;;;;;;;15.00;13.35;;;;;;;3.49;43.02;95685.56;4973863;28;20035;-68
2022/03/07 05:41:36;;;;;;;15.30;13.55;;;;;;;3.15;42.77;95622.59;4973960;28;20130;-67
2022/03/07 05:44:02;;;;;;;14.95;12.73;;;;;;;3.00;42.81;95615.31;4973861;28;20111;-68
2022/03/07 05:46:28;;;;;;;15.60;12.63;;;;;;;2.78;42.84;95589.03;4972598;28;20078;-70
2022/03/07 05:48:53;;;;;;;17.13;13.77;;;;;;;2.62;42.62;95518.16;4971938;28;20046;-68
2022/03/07 05:51:23;;;;;;;14.20;12.20;;;;;;;2.82;43.12;95623.50;4973385;28;20102;-68
2022/03/07 05:53:49;;;;;;;16.63;12.32;;;;;;;2.52;43.00;95571.34;4973819;28;20391;-69
2022/03/07 05:56:15;;;;;;;18.33;13.43;;;;;;;1.90;42.87;95469.97;4973771;28;20027;-69
2022/03/07 05:58:40;;;;;;;14.55;12.85;;;;;;;1.49;42.63;95369.75;4973409;28;20031;-69
2022/03/07 06:01:06;;;;;;;16.88;13.43;;;;;;;3.45;42.34;95622.13;4973454;28;20031;-71
2022/03/07 06:03:31;;;;;;;21.17;13.63;;;;;;;3.27;42.08;95607.47;4973076;28;20680;-69
2022/03/07 06:05:57;;;;;;;14.43;12.88;;;;;;;2.70;41.86;95528.22;4972098;28;20093;-69
2022/03/07 06:08:22;;;;;;;15.25;13.15;;;;;;;2.64;42.75;95560.72;4973192;28;20098;-70
2022/03/07 06:10:48;;;;;;;14.60;13.10;;;;;;;1.48;43.02;95406.69;4973320;28;20604;-69
2022/03/07 06:13:14;;;;;;;16.85;13.23;;;;;;;2.89;42.49;95618.06;4973527;28;20111;-69
2022/03/07 06:15:43;;;;;;;14.88;13.02;;;;;;;2.59;42.94;95554.38;4973509;28;20042;-69
2022/03/07 06:18:09;;;;;;;14.60;12.88;;;;;;;3.46;42.58;95652.66;4971924;28;20524;-69
2022/03/07 06:20:35;;;;;;;14.13;12.73;;;;;;;3.52;42.70;95688.47;4972519;28;20039;-69
2022/03/07 06:23:01;;;;;;;14.60;13.05;;;;;;;3.52;42.31;95662.19;4972854;28;20047;-69
2022/03/07 06:25:28;;;;;;;19.42;14.05;;;;;;;3.25;42.88;95648.19;4973348;28;20172;-67
2022/03/07 06:27:53;;;;;;;17.17;13.63;;;;;;;2.59;43.13;95599.00;4972926;28;20061;-70
2022/03/07 06:30:19;;;;;;;15.23;13.50;;;;;;;2.70;42.86;95597.31;4972487;28;20038;-68
2022/03/07 06:32:44;;;;;;;14.85;13.27;;;;;;;3.27;42.73;95717.09;4972152;28;20041;-70
2022/03/07 06:35:10;;;;;;;15.15;13.55;;;;;;;2.26;42.88;95533.47;4972710;28;20027;-68
2022/03/07 06:37:36;;;;;;;15.90;14.13;;;;;;;3.65;42.40;95726.78;4972762;28;20510;-70
2022/03/07 06:40:02;;;;;;;20.60;14.68;;;;;;;3.32;42.21;95620.66;4972368;28;20050;-68
2022/03/07 06:42:27;;;;;;;18.38;14.40;;;;;;;1.49;44.11;95486.94;4972510;28;20414;-67
2022/03/07 06:44:53;;;;;;;19.02;14.60;;;;;;;2.97;43.92;95694.66;4972486;28;20027;-69
2022/03/07 06:47:19;;;;;;;15.13;13.52;;;;;;;1.71;43.19;95460.78;4972589;28;20183;-67
2022/03/07 06:49:45;;;;;;;16.40;14.02;;;;;;;3.09;43.27;95687.44;4971819;28;20361;-66
2022/03/07 06:52:11;;;;;;;17.55;13.80;;;;;;;3.76;42.33;95732.97;4972193;28;20031;-66
2022/03/07 06:54:37;;;;;;;20.08;14.77;;;;;;;3.31;42.58;95695.34;4972316;28;20049;-66
2022/03/07 06:57:03;;;;;;;16.35;14.65;;;;;;;2.74;43.44;95624.69;4971910;28;20054;-65
2022/03/07 06:59:29;;;;;;;20.30;15.32;;;;;;;2.53;43.29;95614.94;4969448;28;20038;-69
2022/03/07 07:01:55;;;;;;;18.02;14.25;;;;;;;3.63;42.81;95734.94;4972114;28;20033;-66
2022/03/07 07:04:21;;;;;;;17.85;14.48;;;;;;;3.33;43.39;95735.34;4971657;28;20026;-65
2022/03/07 07:06:46;;;;;;;16.77;14.70;;;;;;;3.44;42.11;95662.63;4972108;28;20051;-65
2022/03/07 07:09:12;;;;;;;20.88;14.65;;;;;;;4.34;46.35;95734.06;4970101;28;20037;-66
2022/03/07 07:11:38;;;;;;;16.25;13.95;;;;;;;4.90;45.17;95708.16;4972442;28;20392;-66
2022/03/07 07:14:03;;;;;;;16.75;14.88;;;;;;;4.73;41.05;95637.16;4972532;28;20031;-67
2022/03/07 07:16:29;;;;;;;17.15;13.18;;;;;;;4.55;41.47;95537.44;4971272;28;20030;-67
2022/03/07 07:18:55;;;;;;;16.58;14.98;;;;;;;6.01;37.42;95695.78;4971622;28;20035;-67
2022/03/07 07:21:20;;;;;;;19.77;14.43;;;;;;;6.20;37.84;95713.50;4971521;28;20062;-67
2022/03/07 07:23:46;;;;;;;18.25;14.70;;;;;;;5.94;37.55;95722.44;4971904;28;20031;-69
2022/03/07 07:26:13;;;;;;;18.63;15.45;;;;;;;5.41;37.79;95676.78;4971746;28;20043;-67
2022/03/07 07:28:38;;;;;;;16.67;14.90;;;;;;;5.05;37.95;95647.63;4971607;28;20077;-68
2022/03/07 07:31:03;;;;;;;17.65;14.70;;;;;;;4.56;39.55;95686.59;4971709;28;20035;-66
2022/03/07 07:33:29;;;;;;;16.83;15.13;;;;;;;4.75;39.80;95727.31;4971058;28;20031;-65
2022/03/07 07:35:56;;;;;;;18.17;15.18;;;;;;;4.47;40.08;95741.56;4971540;28;20026;-65
2022/03/07 07:38:22;;;;;;;17.00;14.80;;;;;;;4.26;40.04;95710.84;4971629;28;20030;-69
2022/03/07 07:40:48;;;;;;;17.10;15.30;;;;;;;4.77;39.44;95733.13;4971431;28;20391;-69
2022/03/07 07:43:15;;;;;;;19.63;15.00;;;;;;;3.89;40.31;95678.13;4971641;28;20035;-69
2022/03/07 07:45:41;;;;;;;15.80;14.25;;;;;;;4.20;40.24;95672.31;4971719;28;20053;-67
2022/03/07 07:48:07;;;;;;;24.23;15.85;;;;;;;4.76;40.10;95750.00;4970162;28;20030;-65
2022/03/07 07:50:32;;;;;;;17.45;15.20;;;;;;;4.62;39.35;95670.56;4971160;28;20038;-65
2022/03/07 07:52:57;;;;;;;20.90;15.13;;;;;;;4.37;40.02;95701.97;4971647;28;20035;-66
2022/03/07 07:55:24;;;;;;;17.88;15.90;;;;;;;4.21;40.18;95687.88;4971451;28;20094;-66
2022/03/07 07:57:49;;;;;;;16.60;14.10;;;;;;;4.05;40.00;95694.84;4971668;28;20079;-66
2022/03/07 08:00:19;;;;;;;17.30;15.48;;;;;;;4.56;39.09;95645.25;4971380;28;20479;-66
2022/03/07 08:02:48;;;;;;;21.27;15.65;;;;;;;4.84;38.95;95709.97;4971903;28;20102;-69
2022/03/07 08:05:14;;;;;;;17.08;15.38;;;;;;;5.02;39.75;95768.63;4971119;28;20550;-67
2022/03/07 08:07:41;;;;;;;17.88;15.88;;;;;;;4.48;39.19;95637.00;4971267;28;20490;-69
2022/03/07 08:10:08;;;;;;;19.92;15.18;;;;;;;4.38;40.36;95751.75;4970137;28;20030;-66
2022/03/07 08:12:33;;;;;;;19.95;15.80;;;;;;;4.11;41.07;95753.59;4971184;28;20085;-66
2022/03/07 08:14:58;;;;;;;22.85;16.58;;;;;;;4.10;40.50;95721.22;4971431;28;20034;-65
2022/03/07 08:17:24;;;;;;;18.70;15.57;;;;;;;4.28;40.64;95742.97;4971428;28;20050;-66
2022/03/07 08:19:49;;;;;;;21.80;15.82;;;;;;;4.19;39.88;95689.97;4970520;28;20030;-67
2022/03/07 08:22:15;;;;;;;20.48;16.88;;;;;;;4.10;40.65;95715.97;4973455;28;20029;-67
2022/03/07 08:24:40;;;;;;;18.38;16.17;;;;;;;3.63;41.18;95657.81;4974001;28;20034;-73
2022/03/07 08:27:06;;;;;;;22.15;16.08;;;;;;;4.16;39.88;95679.94;4973960;28;20023;-67
2022/03/07 08:29:31;;;;;;;18.17;15.95;;;;;;;4.60;40.46;95787.78;4974858;28;20026;-67
2022/03/07 08:31:57;;;;;;;19.23;16.80;;;;;;;4.75;40.25;95785.28;4975148;28;20069;-68
2022/03/07 08:34:22;;;;;;;22.45;17.15;;;;;;;3.98;40.22;95698.72;4974636;28;20141;-70
2022/03/07 08:36:47;;;;;;;20.48;17.17;;;;;;;4.80;38.90;95758.97;4973775;28;20026;-70
2022/03/07 08:39:13;;;;;;;19.48;17.40;;;;;;;4.43;39.41;95709.66;4974885;28;20440;-67
2022/03/07 08:41:38;;;;;;;20.88;17.42;;;;;;;4.42;38.13;95623.00;4973680;28;20042;-66
2022/03/07 08:44:04;;;;;;;17.13;15.13;;;;;;;4.76;38.73;95742.09;4974433;28;20458;-66
2022/03/07 08:46:29;;;;;;;23.65;17.13;;;;;;;4.92;39.14;95772.78;4974375;28;20026;-67
2022/03/07 08:48:54;;;;;;;19.63;17.63;;;;;;;4.91;38.78;95715.03;4974966;28;20054;-67
2022/03/07 08:51:20;;;;;;;20.90;17.88;;;;;;;5.45;38.76;95794.75;4973594;28;20023;-67
2022/03/07 08:53:45;;;;;;;19.23;16.70;;;;;;;4.42;39.63;95778.41;4974766;28;20092;-67
2022/03/07 08:56:12;;;;;;;19.98;17.92;;;;;;;4.53;38.99;95682.63;4974837;28;20038;-67
2022/03/07 08:58:38;;;;;;;21.23;17.67;;;;;;;4.37;38.75;95678.28;4973338;28;20502;-67
2022/03/07 09:01:03;;;;;;;20.25;18.15;;;;;;;5.60;37.76;95799.31;4974756;28;20030;-66
2022/03/07 09:03:29;;;;;;;21.23;17.77;;;;;;;4.90;38.77;95792.53;4974428;28;20101;-66
2022/03/07 09:05:54;;;;;;;20.17;17.63;;;;;;;4.46;38.82;95745.25;4974578;28;20051;-68
2022/03/07 09:08:19;;;;;;;20.80;17.08;;;;;;;4.12;39.53;95734.91;4974324;28;20027;-68
2022/03/07 09:10:45;;;;;;;18.83;16.90;;;;;;;4.98;37.77;95767.56;4974031;28;20031;-74
2022/03/07 09:13:11;;;;;;;22.00;18.17;;;;;;;4.76;38.94;95810.63;4974102;28;20110;-69
2022/03/07 09:15:36;;;;;;;21.08;16.77;;;;;;;4.34;38.50;95763.84;4974358;28;20027;-69
2022/03/07 09:18:02;;;;;;;23.67;18.40;;;;;;;4.93;38.02;95777.00;4974295;28;20146;-69
2022/03/07 09:20:28;;;;;;;19.90;17.83;;;;;;;5.31;37.42;95766.44;4973666;28;20082;-68
2022/03/07 09:22:53;;;;;;;20.10;17.80;;;;;;;5.67;36.57;95785.91;4973024;28;20157;-68
2022/03/07 09:25:18;;;;;;;19.58;17.02;;;;;;;5.57;36.86;95818.31;4974034;28;20621;-69
2022/03/07 09:27:44;;;;;;;24.65;18.95;;;;;;;5.60;37.07;95790.63;4972553;28;20162;-69
2022/03/07 09:30:12;;;;;;;20.25;18.08;;;;;;;5.75;37.03;95801.25;4973393;28;20035;-69
2022/03/07 09:32:37;;;;;;;21.40;17.83;;;;;;;6.66;35.78;95819.28;4973502;28;20059;-68
2022/03/07 09:35:03;;;;;;;23.92;17.15;;;;;;;6.42;35.18;95818.97;4972262;28;20119;-68
2022/03/07 09:37:28;;;;;;;21.98;17.20;;;;;;;5.78;34.96;95732.09;4973668;28;20375;-68
2022/03/07 09:39:54;;;;;;;20.80;18.42;;;;;;;6.71;35.29;95806.06;4972437;28;20022;-68
2022/03/07 09:42:21;;;;;;;22.25;18.15;;;;;;;6.90;34.07;95822.22;4973811;28;20365;-69
2022/03/07 09:44:47;;;;;;;19.67;17.67;;;;;;;7.59;32.86;95796.25;4973951;28;20030;-68
2022/03/07 09:47:14;;;;;;;18.35;16.52;;;;;;;7.16;32.48;95809.78;4973762;28;20077;-68
2022/03/07 09:49:39;;;;;;;21.60;16.83;;;;;;;7.64;32.75;95810.25;4971772;28;20097;-68
2022/03/07 09:52:05;;;;;;;19.83;17.75;;;;;;;7.76;32.16;95781.63;4973594;28;20439;-68
2022/03/07 09:54:31;;;;;;;21.15;18.65;;;;;;;7.96;32.54;95833.75;4972262;28;20078;-69
2022/03/07 09:56:56;;;;;;;19.67;17.73;;;;;;;8.05;33.10;95836.63;4972524;28;20025;-68
2022/03/07 09:59:22;;;;;;;21.17;18.90;;;;;;;6.76;34.16;95829.88;4972484;28;20114;-69
2022/03/07 10:02:06;;;;;;;19.08;17.27;;;;;;;7.25;32.76;95778.28;4973243;28;20043;-69
2022/03/07 10:04:39;;;;;;;22.15;18.67;;;;;;;7.25;33.24;95821.41;4973983;28;20027;-68
2022/03/07 10:07:05;;;;;;;24.27;19.15;;;;;;;6.51;34.28;95814.75;4972158;28;20029;-69
2022/03/07 10:09:31;;;;;;;20.17;18.00;;;;;;;6.56;33.53;95798.13;4973254;28;20019;-68
2022/03/07 10:12:03;;;;;;;22.92;19.55;;;;;;;6.69;33.81;95839.09;4972181;28;20022;-69
2022/03/07 10:14:42;;;;;;;21.15;18.98;;;;;;;7.23;33.73;95851.88;4972966;28;20027;-69
2022/03/07 10:17:23;;;;;;;20.60;18.48;;;;;;;7.98;32.31;95838.75;4971831;28;20045;-70
2022/03/07 10:19:49;;;;;;;29.45;18.63;;;;;;;7.21;33.49;95846.81;4971036;28;20033;-73
2022/03/07 10:22:22;;;;;;;23.33;18.98;;;;;;;6.47;34.43;95857.81;4972922;28;20026;-72
2022/03/07 10:24:57;;;;;;;22.00;19.40;;;;;;;5.81;36.19;95858.31;4973162;28;20077;-68
2022/03/07 10:27:34;;;;;;;21.50;19.40;;;;;;;6.07;35.45;95859.25;4973239;28;20026;-66
2022/03/07 10:30:00;;;;;;;21.52;18.88;;;;;;;6.67;34.30;95809.50;4972956;28;20031;-70
2022/03/07 10:32:26;;;;;;;20.75;18.73;;;;;;;6.99;32.48;95798.69;4972717;28;20057;-70
2022/03/07 10:34:51;;;;;;;25.45;18.83;;;;;;;6.62;32.98;95822.72;4972323;28;20490;-71
2022/03/07 10:37:17;;;;;;;21.13;18.08;;;;;;;6.70;33.37;95824.81;4972782;28;20030;-70
2022/03/07 10:39:53;;;;;;;20.65;18.05;;;;;;;6.90;34.02;95863.72;4972674;28;20019;-70
2022/03/07 10:42:20;;;;;;;20.67;18.60;;;;;;;6.37;33.88;95829.53;4972609;28;20031;-70
2022/03/07 10:44:47;;;;;;;21.67;19.48;;;;;;;7.34;33.30;95845.50;4970600;28;20124;-71
2022/03/07 10:47:16;;;;;;;22.33;20.02;;;;;;;7.51;32.69;95813.44;4972849;28;20073;-70
2022/03/07 10:49:57;;;;;;;23.98;19.70;;;;;;;6.86;34.30;95849.44;4972011;28;20115;-71
2022/03/07 10:52:24;;;;;;;21.80;19.55;;;;;;;7.13;33.59;95839.44;4972340;28;20037;-70
2022/03/07 10:54:51;;;;;;;25.70;20.08;;;;;;;6.80;33.42;95750.81;4972432;28;20110;-71
2022/03/07 10:57:21;;;;;;;21.02;18.90;;;;;;;8.22;31.86;95833.66;4971341;28;20074;-70
2022/03/07 10:59:47;;;;;;;24.05;20.27;;;;;;;8.27;32.56;95845.03;4970860;28;20038;-70
2022/03/07 11:02:16;;;;;;;21.33;19.30;;;;;;;8.23;32.43;95821.97;4970977;28;20464;-66
2022/03/07 11:04:43;;;;;;;25.30;19.63;;;;;;;6.91;32.22;95733.91;4972020;28;20686;-68
2022/03/07 11:07:09;;;;;;;21.85;19.33;;;;;;;7.98;31.59;95847.50;4972169;28;20118;-67
2022/03/07 11:09:39;;;;;;;24.08;20.67;;;;;;;7.24;32.86;95811.91;4970608;28;20445;-69
2022/03/07 11:12:09;;;;;;;23.58;18.88;;;;;;;7.95;42.52;95853.34;4972113;28;20019;-68
2022/03/07 11:14:36;;;;;;;22.23;19.92;;;;;;;8.52;33.34;95836.19;4972179;28;20069;-73
2022/03/07 11:17:02;;;;;;;25.25;19.65;;;;;;;9.00;35.51;95844.38;4972104;28;20034;-72
2022/03/07 11:19:28;;;;;;;26.05;20.38;;;;;;;9.33;31.23;95813.59;4970319;28;20038;-69